Noble, Indiana
Current Conditions -  °F | °C
As of 6:53 PM on Saturday 22 Nov 2014 (Local Time) from KMIE Reporting Station
Overcast Overcast  
Wind Chill: 53°   Ceiling: 5500
Heat Index: 53°   Visibility: 10mi
Dew Point: 41°   Wind: 9mph
Humidity: 64%   Direction: 200°SSW
Pressure: 30.01"   Gusts: NA
Location:  40.4312°N, 85.0058°W
Report Text: KMIE 222353Z 20008KT 10SM FEW046 BKN055 OVC090 12/05 A3001 RMK AO2 SLP162 60001 T01170050 10122 20094 58004
Loading
Personal Weather Stations






























Interactive Weather Map New forecast layout! Learn more

10-Day Weather Forecast

Advertisements
Track Severe Weather on mobile